createdAt,value
2023-06-17T00:00:57.398Z,5.40
2023-06-17T00:03:24.486Z,3.90
2023-06-17T00:05:52.741Z,4.63
2023-06-17T00:08:20.634Z,4.60
2023-06-17T00:10:47.889Z,4.10
2023-06-17T00:13:20.334Z,7.33
2023-06-17T00:15:57.642Z,4.10
2023-06-17T00:18:25.951Z,4.63
2023-06-17T00:20:54.436Z,5.40
2023-06-17T00:23:22.398Z,4.60
2023-06-17T00:25:50.450Z,6.10
2023-06-17T00:28:17.890Z,3.93
2023-06-17T00:30:47.583Z,5.00
2023-06-17T00:33:15.968Z,4.70
2023-06-17T00:35:43.361Z,4.30
2023-06-17T00:38:10.495Z,4.33
2023-06-17T00:40:37.432Z,4.57
2023-06-17T00:43:04.682Z,4.20
2023-06-17T00:45:39.628Z,5.60
2023-06-17T00:48:10.245Z,4.60
2023-06-17T00:50:38.702Z,4.90
2023-06-17T00:53:07.171Z,5.00
2023-06-17T00:55:35.820Z,4.50
2023-06-17T00:58:03.306Z,5.17
2023-06-17T01:00:30.272Z,4.97
2023-06-17T01:02:57.790Z,4.80
2023-06-17T01:05:26.118Z,5.30
2023-06-17T01:08:45.291Z,4.00
2023-06-17T01:11:21.225Z,5.63
2023-06-17T01:13:56.990Z,11.93
2023-06-17T01:16:26.940Z,5.87
2023-06-17T01:18:55.113Z,5.10
2023-06-17T01:21:23.274Z,4.80
2023-06-17T01:23:54.410Z,5.33
2023-06-17T01:26:22.766Z,6.10
2023-06-17T01:28:49.772Z,6.23
2023-06-17T01:31:19.384Z,5.60
2023-06-17T01:33:51.974Z,5.57
2023-06-17T01:36:29.454Z,5.53
2023-06-17T01:39:06.427Z,6.20
2023-06-17T01:41:50.190Z,5.53
2023-06-17T01:44:20.005Z,6.63
2023-06-17T01:46:47.304Z,6.50
2023-06-17T01:49:14.355Z,6.00
2023-06-17T01:51:41.357Z,6.00
2023-06-17T01:54:08.296Z,6.30
2023-06-17T01:56:35.556Z,7.47
2023-06-17T01:59:02.863Z,10.47
2023-06-17T02:01:29.762Z,6.40
2023-06-17T02:03:57.388Z,7.30
2023-06-17T02:06:24.781Z,8.17
2023-06-17T02:08:51.902Z,6.47
2023-06-17T02:11:18.817Z,7.03
2023-06-17T02:13:45.812Z,7.20
2023-06-17T02:16:12.785Z,6.83
2023-06-17T02:18:40.565Z,7.40
2023-06-17T02:21:07.549Z,6.53
2023-06-17T02:23:34.462Z,5.80
2023-06-17T02:26:01.403Z,6.67
2023-06-17T02:28:28.453Z,6.77
2023-06-17T02:30:55.710Z,8.93
2023-06-17T02:33:24.089Z,7.00
2023-06-17T02:35:51.097Z,8.47
2023-06-17T02:38:18.548Z,9.73
2023-06-17T02:40:45.561Z,5.40
2023-06-17T02:43:12.500Z,5.47
2023-06-17T02:45:39.464Z,6.50
2023-06-17T02:48:06.578Z,6.00
2023-06-17T02:50:33.522Z,5.90
2023-06-17T02:53:01.488Z,6.97
2023-06-17T02:55:28.649Z,8.33
2023-06-17T02:57:55.580Z,6.40
2023-06-17T03:00:22.923Z,6.97
2023-06-17T03:02:52.106Z,6.83
2023-06-17T03:05:19.577Z,7.83
2023-06-17T03:07:47.754Z,7.80
2023-06-17T03:10:16.386Z,6.63
2023-06-17T03:12:43.262Z,8.23
2023-06-17T03:15:10.686Z,6.80
2023-06-17T03:17:38.277Z,6.77
2023-06-17T03:20:09.617Z,13.43
2023-06-17T03:22:36.707Z,6.73
2023-06-17T03:25:04.608Z,7.00
2023-06-17T03:27:32.441Z,7.07
2023-06-17T03:29:59.486Z,6.73
2023-06-17T03:32:26.377Z,6.27
2023-06-17T03:34:57.878Z,7.50
2023-06-17T03:37:24.962Z,8.03
2023-06-17T03:39:51.921Z,6.60
2023-06-17T03:42:18.878Z,7.27
2023-06-17T03:44:45.804Z,7.17
2023-06-17T03:47:12.781Z,6.60
2023-06-17T03:49:39.735Z,7.07
2023-06-17T03:52:07.724Z,8.00
2023-06-17T03:54:34.720Z,7.30
2023-06-17T03:57:01.652Z,6.90
2023-06-17T03:59:29.494Z,7.73
2023-06-17T04:01:56.384Z,6.57
2023-06-17T04:04:23.508Z,8.37
2023-06-17T04:06:50.554Z,7.30
2023-06-17T04:09:17.793Z,7.20
2023-06-17T04:11:44.737Z,6.87
2023-06-17T04:14:11.731Z,8.10
2023-06-17T04:16:38.762Z,7.70
2023-06-17T04:19:05.727Z,8.70
2023-06-17T04:21:32.692Z,7.50
2023-06-17T04:23:59.608Z,6.50
2023-06-17T04:26:26.838Z,8.13
2023-06-17T04:28:53.883Z,7.70
2023-06-17T04:31:20.831Z,8.10
2023-06-17T04:33:48.479Z,8.90
2023-06-17T04:36:18.473Z,7.70
2023-06-17T04:38:45.524Z,8.10
2023-06-17T04:41:12.585Z,7.60
2023-06-17T04:43:39.578Z,7.90
2023-06-17T04:46:07.017Z,8.27
2023-06-17T04:48:33.922Z,7.53
2023-06-17T04:51:00.921Z,8.20
2023-06-17T04:53:28.021Z,8.10
2023-06-17T04:55:54.967Z,7.03
2023-06-17T04:58:21.978Z,8.50
2023-06-17T05:00:49.013Z,8.20
2023-06-17T05:03:16.026Z,6.93
2023-06-17T05:05:42.989Z,7.67
2023-06-17T05:08:10.020Z,10.23
2023-06-17T05:10:36.972Z,8.73
2023-06-17T05:13:04.003Z,8.20
2023-06-17T05:15:30.978Z,7.63
2023-06-17T05:17:57.949Z,7.70
2023-06-17T05:20:24.988Z,8.07
2023-06-17T05:22:51.958Z,7.20
2023-06-17T05:25:19.098Z,10.50
2023-06-17T05:27:46.024Z,7.27
2023-06-17T05:30:13.192Z,6.83
2023-06-17T05:32:40.101Z,10.33
2023-06-17T05:35:07.891Z,6.73
2023-06-17T05:37:34.835Z,7.20
2023-06-17T05:40:01.797Z,6.20
2023-06-17T05:42:28.684Z,6.27
2023-06-17T05:44:55.611Z,7.23
2023-06-17T05:47:22.600Z,7.30
2023-06-17T05:49:49.594Z,7.17
2023-06-17T05:52:16.525Z,7.50
2023-06-17T05:54:43.426Z,7.90
2023-06-17T05:57:10.418Z,7.10
2023-06-17T05:59:37.323Z,6.53
2023-06-17T06:02:04.897Z,7.37
2023-06-17T06:04:31.925Z,7.43
2023-06-17T06:06:58.883Z,7.83
2023-06-17T06:09:25.785Z,6.50
2023-06-17T06:11:52.688Z,7.70
2023-06-17T06:14:19.705Z,7.00
2023-06-17T06:16:46.854Z,7.30
2023-06-17T06:19:13.832Z,6.60
2023-06-17T06:21:40.770Z,6.40
2023-06-17T06:24:07.922Z,6.50
2023-06-17T06:26:35.023Z,7.07
2023-06-17T06:29:01.906Z,7.63
2023-06-17T06:31:28.926Z,6.50
2023-06-17T06:33:55.915Z,6.70
2023-06-17T06:36:22.833Z,7.10
2023-06-17T06:38:50.041Z,6.83
2023-06-17T06:41:16.963Z,8.53
2023-06-17T06:43:44.011Z,6.13
2023-06-17T06:46:12.337Z,6.83
2023-06-17T06:48:40.527Z,6.00
2023-06-17T06:51:07.544Z,9.83
2023-06-17T06:53:34.667Z,6.23
2023-06-17T06:56:01.586Z,5.40
2023-06-17T06:58:28.773Z,6.33
2023-06-17T07:00:55.834Z,7.43
2023-06-17T07:03:22.833Z,6.10
2023-06-17T07:05:49.813Z,9.33
2023-06-17T07:08:16.752Z,5.90
2023-06-17T07:10:43.801Z,5.60
2023-06-17T07:13:10.931Z,6.50
2023-06-17T07:15:37.954Z,5.53
2023-06-17T07:18:05.206Z,6.30
2023-06-17T07:20:32.264Z,5.90
2023-06-17T07:22:59.211Z,5.97
2023-06-17T07:25:27.515Z,6.23
2023-06-17T07:28:00.930Z,10.33
2023-06-17T07:30:28.879Z,8.20
2023-06-17T07:32:56.816Z,5.97
2023-06-17T07:35:23.741Z,6.37
2023-06-17T07:37:53.241Z,6.83
2023-06-17T07:40:20.915Z,5.00
2023-06-17T07:42:48.066Z,7.87
2023-06-17T07:45:15.949Z,9.27
2023-06-17T07:47:43.142Z,7.43
2023-06-17T07:50:11.354Z,6.33
2023-06-17T07:52:38.761Z,5.73
2023-06-17T07:55:09.556Z,5.77
2023-06-17T07:57:36.809Z,4.93
2023-06-17T08:03:38.917Z,5.80
2023-06-17T08:06:06.150Z,5.67
2023-06-17T08:08:33.114Z,7.03
2023-06-17T08:11:02.107Z,5.77
2023-06-17T08:13:29.051Z,7.37
2023-06-17T08:16:00.022Z,5.90
2023-06-17T08:18:27.179Z,6.20
2023-06-17T08:20:54.184Z,4.77
2023-06-17T08:23:21.183Z,6.23
2023-06-17T08:25:48.104Z,7.50
2023-06-17T08:28:17.561Z,6.00
2023-06-17T08:30:44.507Z,5.60
2023-06-17T08:33:11.725Z,6.50
2023-06-17T08:35:38.817Z,7.00
2023-06-17T08:38:06.100Z,5.53
2023-06-17T08:40:36.415Z,6.70
2023-06-17T08:43:04.644Z,5.80
2023-06-17T08:45:31.966Z,6.90
2023-06-17T08:48:00.667Z,5.80
2023-06-17T08:50:29.529Z,5.33
2023-06-17T08:52:58.972Z,8.03
2023-06-17T08:55:26.389Z,6.77
2023-06-17T08:57:53.344Z,7.50
2023-06-17T09:00:20.930Z,6.83
2023-06-17T09:02:49.690Z,6.13
2023-06-17T09:05:17.565Z,6.73
2023-06-17T09:07:44.775Z,5.60
2023-06-17T09:10:16.558Z,6.37
2023-06-17T09:12:43.467Z,6.13
2023-06-17T09:15:18.702Z,6.07
2023-06-17T09:17:46.894Z,5.40
2023-06-17T09:20:18.488Z,6.33
2023-06-17T09:22:49.320Z,8.40
2023-06-17T09:25:19.115Z,6.40
2023-06-17T09:30:26.478Z,5.93
2023-06-17T09:32:53.866Z,6.40
2023-06-17T09:35:21.057Z,7.40
2023-06-17T09:38:03.309Z,6.37
2023-06-17T09:40:34.658Z,7.13
2023-06-17T09:43:21.028Z,7.80
2023-06-17T09:46:15.650Z,7.73
2023-06-17T09:48:43.951Z,6.10
2023-06-17T09:51:13.562Z,10.83
2023-06-17T09:53:43.153Z,5.77
2023-06-17T09:56:13.429Z,4.90
2023-06-17T09:58:44.651Z,6.63
2023-06-17T10:01:14.495Z,6.30
2023-06-17T10:03:41.596Z,6.07
2023-06-17T10:06:19.387Z,6.43
2023-06-17T10:08:51.932Z,5.50
2023-06-17T10:11:21.560Z,6.03
2023-06-17T10:14:00.146Z,5.57
2023-06-17T10:16:35.123Z,7.73
2023-06-17T10:19:08.769Z,5.23
2023-06-17T10:21:43.079Z,5.70
2023-06-17T10:24:12.592Z,10.63
2023-06-17T10:26:39.985Z,6.50
2023-06-17T10:29:09.057Z,8.70
2023-06-17T10:31:43.701Z,5.40
2023-06-17T10:34:23.630Z,6.53
2023-06-17T10:36:59.190Z,6.33
2023-06-17T10:39:26.192Z,6.33
2023-06-17T10:41:58.478Z,5.43
2023-06-17T10:44:38.490Z,6.00
2023-06-17T10:47:22.780Z,5.87
2023-06-17T10:49:53.581Z,7.13
2023-06-17T10:52:21.205Z,5.23
2023-06-17T10:54:56.643Z,5.50
2023-06-17T10:57:36.581Z,5.83
2023-06-17T11:00:12.829Z,5.80
2023-06-17T11:02:41.362Z,6.33
2023-06-17T11:05:10.902Z,5.57
2023-06-17T11:07:38.040Z,6.20
2023-06-17T11:10:06.345Z,8.00
2023-06-17T11:12:35.704Z,5.27
2023-06-17T11:15:04.923Z,6.30
2023-06-17T11:17:32.071Z,6.10
2023-06-17T11:19:59.100Z,5.93
2023-06-17T11:22:26.471Z,5.50
2023-06-17T11:24:53.519Z,9.07
2023-06-17T11:27:20.699Z,6.80
2023-06-17T11:29:48.622Z,5.83
2023-06-17T11:32:15.859Z,6.00
2023-06-17T11:34:43.207Z,6.27
2023-06-17T11:37:12.469Z,5.77
2023-06-17T11:39:40.104Z,5.53
2023-06-17T11:42:10.043Z,5.40
2023-06-17T11:44:38.302Z,5.67
2023-06-17T11:47:10.257Z,6.27
2023-06-17T11:49:46.515Z,8.30
2023-06-17T11:52:15.078Z,5.87
2023-06-17T11:54:49.712Z,5.90
2023-06-17T11:57:26.142Z,5.50
2023-06-17T12:00:01.491Z,8.33
2023-06-17T12:02:29.298Z,5.63
2023-06-17T12:05:04.088Z,5.90
2023-06-17T12:07:41.381Z,5.73
2023-06-17T12:10:12.321Z,9.83
2023-06-17T12:12:41.139Z,5.63
2023-06-17T12:15:16.551Z,5.20
2023-06-17T12:18:10.701Z,6.67
2023-06-17T12:20:39.318Z,5.23
2023-06-17T12:23:06.585Z,5.30
2023-06-17T12:25:35.360Z,4.47
2023-06-17T12:28:03.043Z,5.90
2023-06-17T12:30:30.973Z,4.60
2023-06-17T12:32:58.329Z,5.30
2023-06-17T12:35:25.824Z,5.27
2023-06-17T12:37:55.660Z,4.43
2023-06-17T12:40:23.097Z,5.20
2023-06-17T12:42:49.982Z,5.97
2023-06-17T12:45:16.925Z,5.50
2023-06-17T12:47:43.911Z,5.50
2023-06-17T12:50:11.291Z,5.00
2023-06-17T12:52:38.286Z,5.00
2023-06-17T12:55:06.406Z,5.40
2023-06-17T12:57:34.692Z,5.93
2023-06-17T13:00:02.067Z,5.10
2023-06-17T13:02:32.224Z,5.87
2023-06-17T13:05:01.159Z,6.47
2023-06-17T13:07:28.510Z,5.73
2023-06-17T13:09:56.950Z,5.30
2023-06-17T13:12:24.080Z,5.67
2023-06-17T13:14:51.016Z,5.23
2023-06-17T13:17:18.133Z,5.87
2023-06-17T13:19:45.507Z,5.97
2023-06-17T13:22:12.475Z,5.27
2023-06-17T13:24:39.690Z,4.73
2023-06-17T13:27:07.690Z,5.27
2023-06-17T13:29:34.778Z,5.23
2023-06-17T13:32:02.238Z,4.70
2023-06-17T13:34:29.280Z,11.17
2023-06-17T13:36:56.460Z,4.80
2023-06-17T13:39:23.500Z,4.80
2023-06-17T13:41:50.562Z,4.90
2023-06-17T13:44:17.563Z,5.73
2023-06-17T13:46:44.653Z,6.47
2023-06-17T13:49:11.670Z,6.00
2023-06-17T13:51:38.578Z,6.03
2023-06-17T13:54:05.902Z,5.77
2023-06-17T13:56:33.311Z,5.80
2023-06-17T13:59:00.211Z,5.20
2023-06-17T14:01:27.242Z,6.03
2023-06-17T14:03:54.247Z,5.07
2023-06-17T14:06:21.859Z,4.80
2023-06-17T14:08:49.261Z,9.20
2023-06-17T14:11:16.475Z,5.00
2023-06-17T14:13:44.484Z,4.50
2023-06-17T14:16:13.245Z,5.53
2023-06-17T14:18:40.199Z,5.00
2023-06-17T14:21:07.944Z,4.93
2023-06-17T14:23:34.850Z,6.60
2023-06-17T14:26:01.916Z,6.13
2023-06-17T14:28:28.824Z,5.33
2023-06-17T14:30:56.060Z,5.67
2023-06-17T14:33:23.016Z,5.40
2023-06-17T14:35:50.966Z,5.80
2023-06-17T14:38:19.329Z,5.40
2023-06-17T14:40:52.164Z,5.50
2023-06-17T14:43:19.172Z,5.33
2023-06-17T14:45:46.102Z,5.20
2023-06-17T14:48:13.506Z,5.33
2023-06-17T14:50:40.903Z,8.83
2023-06-17T14:53:12.334Z,5.97
2023-06-17T14:55:43.342Z,6.10
2023-06-17T14:58:13.278Z,4.87
2023-06-17T15:00:44.140Z,5.53
2023-06-17T15:03:11.697Z,5.40
2023-06-17T15:05:39.485Z,8.93
2023-06-17T15:08:06.789Z,8.10
2023-06-17T15:10:33.862Z,7.40
2023-06-17T15:13:04.277Z,5.63
2023-06-17T15:15:31.167Z,6.00
2023-06-17T15:17:59.353Z,8.03
2023-06-17T15:20:26.678Z,9.27
2023-06-17T15:22:53.974Z,5.50
2023-06-17T15:25:20.995Z,7.03
2023-06-17T15:27:47.977Z,5.63
2023-06-17T15:30:15.219Z,5.50
2023-06-17T15:32:42.386Z,5.30
2023-06-17T15:35:10.643Z,6.20
2023-06-17T15:37:37.784Z,6.30
2023-06-17T15:40:07.517Z,5.03
2023-06-17T15:42:34.508Z,6.97
2023-06-17T15:45:01.418Z,4.90
2023-06-17T15:47:28.409Z,6.53
2023-06-17T15:49:55.646Z,5.53
2023-06-17T15:52:25.147Z,6.07
2023-06-17T15:54:58.912Z,5.30
2023-06-17T15:57:25.986Z,5.37
2023-06-17T15:59:53.735Z,6.00
2023-06-17T16:02:21.384Z,6.87
2023-06-17T16:04:54.506Z,5.83
2023-06-17T16:07:21.667Z,5.27
2023-06-17T16:09:51.324Z,5.57
2023-06-17T16:12:18.852Z,5.83
2023-06-17T16:14:47.300Z,4.87
2023-06-17T16:17:14.674Z,6.03
2023-06-17T16:19:41.798Z,12.10
2023-06-17T16:22:11.625Z,4.80
2023-06-17T16:24:42.287Z,6.90
2023-06-17T16:27:12.011Z,5.37
2023-06-17T16:29:40.049Z,5.67
2023-06-17T16:32:07.950Z,5.07
2023-06-17T16:34:37.111Z,5.30
2023-06-17T16:37:04.546Z,5.90
2023-06-17T16:39:31.558Z,5.00
2023-06-17T16:41:58.458Z,6.20
2023-06-17T16:44:25.825Z,5.47
2023-06-17T16:46:53.661Z,14.33
2023-06-17T16:49:20.674Z,5.63
2023-06-17T16:51:47.923Z,8.20
2023-06-17T16:54:14.895Z,5.80
2023-06-17T16:56:41.955Z,6.33
2023-06-17T16:59:09.040Z,4.97
2023-06-17T17:01:36.106Z,5.50
2023-06-17T17:04:12.614Z,5.43
2023-06-17T17:06:43.622Z,5.63
2023-06-17T17:09:10.695Z,5.70
2023-06-17T17:11:37.654Z,10.90
2023-06-17T17:14:05.381Z,5.10
2023-06-17T17:16:32.428Z,6.80
2023-06-17T17:18:59.536Z,5.20
2023-06-17T17:21:27.245Z,5.70
2023-06-17T17:23:54.301Z,5.40
2023-06-17T17:26:21.316Z,5.40
2023-06-17T17:28:48.284Z,6.00
2023-06-17T17:31:15.385Z,5.90
2023-06-17T17:33:44.231Z,4.47
2023-06-17T17:36:15.318Z,5.80
2023-06-17T17:38:43.370Z,6.07
2023-06-17T17:41:11.973Z,5.90
2023-06-17T17:43:39.258Z,6.80
2023-06-17T17:46:08.563Z,6.43
2023-06-17T17:48:35.838Z,5.80
2023-06-17T17:51:02.825Z,6.00
2023-06-17T17:53:30.262Z,5.47
2023-06-17T17:55:57.271Z,6.53
2023-06-17T17:58:24.264Z,5.17
2023-06-17T18:00:51.215Z,6.03
2023-06-17T18:03:18.334Z,5.70
2023-06-17T18:05:45.312Z,5.50
2023-06-17T18:08:12.376Z,6.70
2023-06-17T18:10:39.379Z,5.30
2023-06-17T18:13:06.386Z,5.43
2023-06-17T18:15:33.315Z,6.13
2023-06-17T18:18:00.375Z,6.87
2023-06-17T18:20:27.394Z,5.60
2023-06-17T18:22:54.369Z,5.97
2023-06-17T18:25:21.284Z,6.93
2023-06-17T18:27:48.204Z,5.70
2023-06-17T18:30:15.308Z,5.77
2023-06-17T18:32:42.385Z,5.07
2023-06-17T18:35:09.495Z,6.23
2023-06-17T18:37:36.434Z,5.80
2023-06-17T18:40:03.867Z,5.10
2023-06-17T18:42:30.759Z,7.00
2023-06-17T18:44:57.754Z,6.33
2023-06-17T18:47:24.718Z,6.07
2023-06-17T18:49:51.677Z,5.87
2023-06-17T18:52:19.210Z,5.60
2023-06-17T18:54:46.170Z,5.53
2023-06-17T18:57:14.555Z,5.17
2023-06-17T18:59:41.560Z,6.07
2023-06-17T19:02:08.494Z,5.67
2023-06-17T19:04:35.633Z,4.93
2023-06-17T19:07:04.580Z,8.73
2023-06-17T19:09:31.823Z,9.90
2023-06-17T19:12:00.767Z,5.17
2023-06-17T19:14:28.180Z,6.37
2023-06-17T19:16:55.688Z,6.57
2023-06-17T19:19:22.696Z,8.53
2023-06-17T19:21:49.808Z,6.43
2023-06-17T19:24:19.206Z,7.47
2023-06-17T19:26:46.279Z,6.27
2023-06-17T19:29:13.236Z,8.13
2023-06-17T19:31:40.192Z,6.77
2023-06-17T19:34:07.104Z,6.20
2023-06-17T19:36:34.151Z,8.63
2023-06-17T19:39:01.021Z,6.17
2023-06-17T19:41:28.870Z,6.73
2023-06-17T19:43:57.540Z,8.03
2023-06-17T19:46:25.101Z,10.57
2023-06-17T19:48:52.126Z,5.97
2023-06-17T19:51:19.080Z,9.27
2023-06-17T19:53:46.077Z,6.80
2023-06-17T19:56:13.149Z,5.50
2023-06-17T19:58:40.083Z,7.67
2023-06-17T20:01:07.209Z,6.30
2023-06-17T20:03:34.702Z,6.83
2023-06-17T20:06:01.970Z,7.73
2023-06-17T20:08:30.566Z,7.37
2023-06-17T20:10:57.529Z,6.97
2023-06-17T20:13:24.435Z,6.97
2023-06-17T20:15:52.419Z,6.70
2023-06-17T20:18:19.470Z,9.87
2023-06-17T20:20:46.492Z,7.60
2023-06-17T20:23:13.376Z,6.73
2023-06-17T20:25:40.556Z,7.80
2023-06-17T20:28:07.526Z,7.90
2023-06-17T20:30:34.496Z,7.73
2023-06-17T20:33:01.442Z,7.90
2023-06-17T20:35:28.367Z,8.03
2023-06-17T20:37:55.834Z,8.67
2023-06-17T20:40:23.074Z,8.10
2023-06-17T20:42:50.317Z,9.10
2023-06-17T20:45:18.231Z,7.80
2023-06-17T20:47:45.389Z,9.20
2023-06-17T20:50:12.735Z,10.17
2023-06-17T20:52:39.645Z,12.50
2023-06-17T20:55:07.410Z,8.43
2023-06-17T20:57:34.343Z,8.83
2023-06-17T21:00:01.506Z,10.70
2023-06-17T21:02:28.516Z,8.00
2023-06-17T21:04:56.820Z,10.20
2023-06-17T21:07:23.876Z,8.10
2023-06-17T21:09:51.416Z,8.97
2023-06-17T21:12:21.657Z,7.63
2023-06-17T21:14:48.884Z,14.63
2023-06-17T21:17:16.869Z,12.20
2023-06-17T21:19:43.954Z,10.50
2023-06-17T21:22:11.149Z,9.50
2023-06-17T21:24:38.512Z,16.00
2023-06-17T21:27:10.266Z,9.80
2023-06-17T21:29:38.742Z,8.17
2023-06-17T21:32:10.089Z,9.13
2023-06-17T21:34:38.407Z,9.20
2023-06-17T21:37:05.895Z,8.63
2023-06-17T21:39:32.847Z,13.33
2023-06-17T21:41:59.915Z,10.03
2023-06-17T21:44:26.849Z,9.10
2023-06-17T21:46:53.824Z,7.83
2023-06-17T21:49:21.022Z,9.50
2023-06-17T21:51:48.025Z,10.60
2023-06-17T21:54:14.989Z,8.57
2023-06-17T21:56:41.882Z,8.37
2023-06-17T21:59:08.810Z,9.57
2023-06-17T22:01:35.980Z,9.03
2023-06-17T22:04:03.166Z,10.70
2023-06-17T22:06:31.217Z,8.83
2023-06-17T22:08:58.266Z,7.33
2023-06-17T22:11:25.186Z,7.90
2023-06-17T22:13:52.159Z,8.20
2023-06-17T22:16:19.323Z,7.80
2023-06-17T22:18:46.461Z,9.40
2023-06-17T22:21:13.550Z,7.90
2023-06-17T22:23:40.593Z,9.50
2023-06-17T22:26:07.809Z,8.10
2023-06-17T22:28:35.051Z,7.63
2023-06-17T22:31:01.998Z,9.27
2023-06-17T22:33:29.361Z,7.40
2023-06-17T22:35:56.345Z,8.60
2023-06-17T22:38:23.286Z,8.53
2023-06-17T22:40:50.318Z,10.23
2023-06-17T22:43:20.167Z,7.37
2023-06-17T22:45:47.618Z,8.23
2023-06-17T22:48:14.509Z,12.57
2023-06-17T22:50:41.583Z,8.40
2023-06-17T22:53:08.640Z,9.53
2023-06-17T22:55:37.419Z,12.87
2023-06-17T22:58:04.710Z,7.90
2023-06-17T23:00:31.682Z,13.20
2023-06-17T23:02:58.728Z,9.80
2023-06-17T23:05:25.787Z,8.40
2023-06-17T23:07:52.708Z,8.67
2023-06-17T23:10:20.176Z,7.97
2023-06-17T23:12:47.348Z,8.70
2023-06-17T23:15:14.317Z,9.53
2023-06-17T23:17:41.329Z,7.73
2023-06-17T23:20:09.043Z,12.77
2023-06-17T23:22:36.831Z,9.43
2023-06-17T23:25:07.910Z,15.83
2023-06-17T23:27:35.645Z,32.80
2023-06-17T23:30:02.882Z,37.83
2023-06-17T23:32:29.882Z,14.33
2023-06-17T23:34:57.292Z,9.17
2023-06-17T23:37:26.249Z,11.50
2023-06-17T23:39:53.882Z,11.50
2023-06-17T23:42:20.843Z,13.77
2023-06-17T23:44:49.188Z,12.60
2023-06-17T23:47:19.780Z,11.67
2023-06-17T23:49:47.536Z,12.10
2023-06-17T23:52:14.783Z,9.93
2023-06-17T23:54:42.062Z,9.90
2023-06-17T23:57:09.059Z,9.97
2023-06-17T23:59:36.311Z,10.73
